sensor_id;sensor_type;location;lat;lon;timestamp;pressure;altitude;pressure_sealevel;temperature;humidity
4767;BME280;2397;53.576;9.746;2023-06-22T00:02:26;101964.75;;;19.84;69.33
4767;BME280;2397;53.576;9.746;2023-06-22T00:04:52;101964.03;;;19.90;68.87
4767;BME280;2397;53.576;9.746;2023-06-22T00:07:19;101967.59;;;19.83;69.62
4767;BME280;2397;53.576;9.746;2023-06-22T00:09:46;101960.94;;;19.79;70.05
4767;BME280;2397;53.576;9.746;2023-06-22T00:12:12;101962.59;;;19.80;69.94
4767;BME280;2397;53.576;9.746;2023-06-22T00:14:39;101961.31;;;19.76;69.51
4767;BME280;2397;53.576;9.746;2023-06-22T00:17:05;101962.97;;;19.77;69.42
4767;BME280;2397;53.576;9.746;2023-06-22T00:19:32;101965.09;;;19.81;69.46
4767;BME280;2397;53.576;9.746;2023-06-22T00:22:02;101967.06;;;19.87;69.24
4767;BME280;2397;53.576;9.746;2023-06-22T00:24:30;101964.56;;;19.86;69.31
4767;BME280;2397;53.576;9.746;2023-06-22T00:26:56;101970.81;;;19.78;69.85
4767;BME280;2397;53.576;9.746;2023-06-22T00:29:23;101973.31;;;19.80;70.03
4767;BME280;2397;53.576;9.746;2023-06-22T00:31:51;101971.75;;;19.71;69.73
4767;BME280;2397;53.576;9.746;2023-06-22T00:34:18;101975.88;;;19.59;70.15
4767;BME280;2397;53.576;9.746;2023-06-22T00:36:44;101978.97;;;19.48;70.75
4767;BME280;2397;53.576;9.746;2023-06-22T00:39:12;101974.91;;;19.52;70.82
4767;BME280;2397;53.576;9.746;2023-06-22T00:41:39;101970.72;;;19.49;70.75
4767;BME280;2397;53.576;9.746;2023-06-22T00:44:05;101983.66;;;19.46;71.21
4767;BME280;2397;53.576;9.746;2023-06-22T00:46:33;101982.81;;;19.45;71.10
4767;BME280;2397;53.576;9.746;2023-06-22T00:49:00;101980.97;;;19.46;71.00
4767;BME280;2397;53.576;9.746;2023-06-22T00:51:27;101977.94;;;19.49;70.92
4767;BME280;2397;53.576;9.746;2023-06-22T00:53:54;101979.88;;;19.55;70.27
4767;BME280;2397;53.576;9.746;2023-06-22T00:56:22;101985.97;;;19.49;70.71
4767;BME280;2397;53.576;9.746;2023-06-22T00:58:51;101985.88;;;19.42;70.84
4767;BME280;2397;53.576;9.746;2023-06-22T01:01:20;101986.06;;;19.33;71.46
4767;BME280;2397;53.576;9.746;2023-06-22T01:03:50;101989.78;;;19.32;71.74
4767;BME280;2397;53.576;9.746;2023-06-22T01:06:22;101983.94;;;19.28;71.68
4767;BME280;2397;53.576;9.746;2023-06-22T01:09:08;101983.81;;;19.14;72.34
4767;BME280;2397;53.576;9.746;2023-06-22T01:11:45;101981.81;;;19.16;72.30
4767;BME280;2397;53.576;9.746;2023-06-22T01:14:23;101981.16;;;19.14;72.54
4767;BME280;2397;53.576;9.746;2023-06-22T01:16:56;101979.13;;;19.16;72.67
4767;BME280;2397;53.576;9.746;2023-06-22T01:19:46;101976.94;;;19.19;72.40
4767;BME280;2397;53.576;9.746;2023-06-22T01:22:16;101973.13;;;19.14;72.73
4767;BME280;2397;53.576;9.746;2023-06-22T01:30:08;101974.84;;;19.07;73.07
4767;BME280;2397;53.576;9.746;2023-06-22T01:32:38;101979.25;;;18.92;73.44
4767;BME280;2397;53.576;9.746;2023-06-22T01:35:07;101975.84;;;18.75;74.32
4767;BME280;2397;53.576;9.746;2023-06-22T01:37:35;101969.56;;;18.91;74.14
4767;BME280;2397;53.576;9.746;2023-06-22T01:40:04;101966.16;;;19.05;73.32
4767;BME280;2397;53.576;9.746;2023-06-22T01:42:32;101962.34;;;18.99;73.28
4767;BME280;2397;53.576;9.746;2023-06-22T01:45:00;101965.19;;;18.98;73.14
4767;BME280;2397;53.576;9.746;2023-06-22T01:47:29;101971.00;;;19.01;73.23
4767;BME280;2397;53.576;9.746;2023-06-22T01:49:56;101971.47;;;19.13;72.64
4767;BME280;2397;53.576;9.746;2023-06-22T01:52:23;101956.78;;;19.09;73.03
4767;BME280;2397;53.576;9.746;2023-06-22T01:54:50;101964.84;;;19.01;73.39
4767;BME280;2397;53.576;9.746;2023-06-22T01:57:18;101967.91;;;18.90;73.90
4767;BME280;2397;53.576;9.746;2023-06-22T01:59:53;101966.25;;;18.89;73.78
4767;BME280;2397;53.576;9.746;2023-06-22T02:02:25;101971.41;;;18.90;73.96
4767;BME280;2397;53.576;9.746;2023-06-22T02:04:59;101975.28;;;18.88;74.23
4767;BME280;2397;53.576;9.746;2023-06-22T02:07:32;101978.34;;;18.77;74.22
4767;BME280;2397;53.576;9.746;2023-06-22T02:10:02;101973.88;;;18.69;74.30
4767;BME280;2397;53.576;9.746;2023-06-22T02:12:30;101978.06;;;18.64;74.57
4767;BME280;2397;53.576;9.746;2023-06-22T02:14:59;101974.03;;;18.68;75.04
4767;BME280;2397;53.576;9.746;2023-06-22T02:17:27;101987.06;;;18.63;74.62
4767;BME280;2397;53.576;9.746;2023-06-22T02:19:55;101978.06;;;18.64;74.76
4767;BME280;2397;53.576;9.746;2023-06-22T02:22:22;101971.03;;;18.63;74.91
4767;BME280;2397;53.576;9.746;2023-06-22T02:24:50;101967.34;;;18.72;74.72
4767;BME280;2397;53.576;9.746;2023-06-22T02:27:18;101970.19;;;18.70;74.49
4767;BME280;2397;53.576;9.746;2023-06-22T02:29:47;101967.41;;;18.56;74.98
4767;BME280;2397;53.576;9.746;2023-06-22T02:32:13;101957.69;;;18.55;74.94
4767;BME280;2397;53.576;9.746;2023-06-22T02:34:41;101948.41;;;18.43;75.41
4767;BME280;2397;53.576;9.746;2023-06-22T02:37:09;101943.56;;;18.38;75.51
4767;BME280;2397;53.576;9.746;2023-06-22T02:39:39;101947.56;;;18.34;75.62
4767;BME280;2397;53.576;9.746;2023-06-22T02:42:07;101949.75;;;18.31;75.63
4767;BME280;2397;53.576;9.746;2023-06-22T02:44:33;101962.44;;;18.29;75.59
4767;BME280;2397;53.576;9.746;2023-06-22T02:47:00;101959.59;;;18.30;75.83
4767;BME280;2397;53.576;9.746;2023-06-22T02:49:26;101957.44;;;18.34;75.76
4767;BME280;2397;53.576;9.746;2023-06-22T02:51:53;101955.09;;;18.31;75.78
4767;BME280;2397;53.576;9.746;2023-06-22T02:54:21;101956.94;;;18.22;75.78
4767;BME280;2397;53.576;9.746;2023-06-22T02:56:51;101965.63;;;18.16;76.02
4767;BME280;2397;53.576;9.746;2023-06-22T02:59:18;101952.09;;;18.18;76.16
4767;BME280;2397;53.576;9.746;2023-06-22T03:01:52;101959.78;;;18.21;76.17
4767;BME280;2397;53.576;9.746;2023-06-22T03:04:24;101953.97;;;18.17;75.94
4767;BME280;2397;53.576;9.746;2023-06-22T03:06:51;101959.84;;;18.05;76.11
4767;BME280;2397;53.576;9.746;2023-06-22T03:09:18;101961.19;;;18.01;76.58
4767;BME280;2397;53.576;9.746;2023-06-22T03:11:45;101967.88;;;17.97;76.51
4767;BME280;2397;53.576;9.746;2023-06-22T03:14:12;101971.19;;;17.99;76.43
4767;BME280;2397;53.576;9.746;2023-06-22T03:16:38;101975.22;;;17.95;76.57
4767;BME280;2397;53.576;9.746;2023-06-22T03:19:07;101960.34;;;18.00;76.50
4767;BME280;2397;53.576;9.746;2023-06-22T03:21:34;101971.00;;;18.08;76.34
4767;BME280;2397;53.576;9.746;2023-06-22T03:24:00;101968.84;;;18.04;76.51
4767;BME280;2397;53.576;9.746;2023-06-22T03:26:27;101974.34;;;17.94;76.68
4767;BME280;2397;53.576;9.746;2023-06-22T03:28:54;101970.72;;;17.95;76.55
4767;BME280;2397;53.576;9.746;2023-06-22T03:31:21;101968.84;;;18.04;76.47
4767;BME280;2397;53.576;9.746;2023-06-22T03:33:49;101974.69;;;18.07;76.46
4767;BME280;2397;53.576;9.746;2023-06-22T03:36:17;101977.69;;;18.12;76.21
4767;BME280;2397;53.576;9.746;2023-06-22T03:38:48;101987.19;;;18.15;76.41
4767;BME280;2397;53.576;9.746;2023-06-22T03:41:15;101988.69;;;18.25;76.13
4767;BME280;2397;53.576;9.746;2023-06-22T03:43:43;101981.16;;;18.21;76.71
4767;BME280;2397;53.576;9.746;2023-06-22T03:46:09;101982.84;;;18.22;76.87
4767;BME280;2397;53.576;9.746;2023-06-22T03:48:36;101977.47;;;18.22;77.21
4767;BME280;2397;53.576;9.746;2023-06-22T03:51:03;101974.97;;;18.20;77.57
4767;BME280;2397;53.576;9.746;2023-06-22T03:53:29;101978.84;;;18.18;77.54
4767;BME280;2397;53.576;9.746;2023-06-22T03:55:56;101994.19;;;18.24;77.43
4767;BME280;2397;53.576;9.746;2023-06-22T03:58:23;102001.34;;;18.31;77.38
4767;BME280;2397;53.576;9.746;2023-06-22T04:00:51;101996.69;;;18.33;77.40
4767;BME280;2397;53.576;9.746;2023-06-22T04:03:19;102003.38;;;18.37;77.77
4767;BME280;2397;53.576;9.746;2023-06-22T04:05:46;101990.00;;;18.45;77.52
4767;BME280;2397;53.576;9.746;2023-06-22T04:08:15;101994.84;;;18.42;77.85
4767;BME280;2397;53.576;9.746;2023-06-22T04:10:42;102000.50;;;18.47;77.94
4767;BME280;2397;53.576;9.746;2023-06-22T04:13:08;102009.03;;;18.50;77.87
4767;BME280;2397;53.576;9.746;2023-06-22T04:15:35;102005.84;;;18.55;78.03
4767;BME280;2397;53.576;9.746;2023-06-22T04:18:02;102008.19;;;18.50;78.28
4767;BME280;2397;53.576;9.746;2023-06-22T04:20:29;102006.69;;;18.55;78.23
4767;BME280;2397;53.576;9.746;2023-06-22T04:22:55;102012.16;;;18.62;78.10
4767;BME280;2397;53.576;9.746;2023-06-22T04:25:22;102013.47;;;18.66;78.24
4767;BME280;2397;53.576;9.746;2023-06-22T04:27:49;102015.47;;;18.72;78.11
4767;BME280;2397;53.576;9.746;2023-06-22T04:30:16;102014.53;;;18.57;78.48
4767;BME280;2397;53.576;9.746;2023-06-22T04:32:43;102017.50;;;18.62;78.22
4767;BME280;2397;53.576;9.746;2023-06-22T04:35:11;102019.34;;;18.69;77.96
4767;BME280;2397;53.576;9.746;2023-06-22T04:37:38;102017.84;;;18.67;78.11
4767;BME280;2397;53.576;9.746;2023-06-22T04:40:06;102025.88;;;18.67;78.70
4767;BME280;2397;53.576;9.746;2023-06-22T04:42:34;102021.00;;;18.70;79.08
4767;BME280;2397;53.576;9.746;2023-06-22T04:45:03;102024.44;;;18.87;78.62
4767;BME280;2397;53.576;9.746;2023-06-22T04:47:30;102025.50;;;19.08;77.58
4767;BME280;2397;53.576;9.746;2023-06-22T04:49:57;102023.63;;;19.17;77.53
4767;BME280;2397;53.576;9.746;2023-06-22T04:52:24;102023.66;;;19.09;77.65
4767;BME280;2397;53.576;9.746;2023-06-22T04:54:51;102019.50;;;19.06;77.07
4767;BME280;2397;53.576;9.746;2023-06-22T04:57:22;102019.94;;;19.18;76.99
4767;BME280;2397;53.576;9.746;2023-06-22T05:00:00;102024.91;;;19.37;76.44
4767;BME280;2397;53.576;9.746;2023-06-22T05:02:41;102018.81;;;19.43;76.18
4767;BME280;2397;53.576;9.746;2023-06-22T05:05:08;102018.47;;;19.46;75.59
4767;BME280;2397;53.576;9.746;2023-06-22T05:07:35;102019.53;;;19.59;75.60
4767;BME280;2397;53.576;9.746;2023-06-22T05:10:03;102016.75;;;19.53;76.11
4767;BME280;2397;53.576;9.746;2023-06-22T05:12:30;102015.78;;;19.46;76.73
4767;BME280;2397;53.576;9.746;2023-06-22T05:14:57;102018.41;;;19.54;76.60
4767;BME280;2397;53.576;9.746;2023-06-22T05:17:24;102023.66;;;19.70;75.07
4767;BME280;2397;53.576;9.746;2023-06-22T05:19:51;102019.44;;;19.75;73.87
4767;BME280;2397;53.576;9.746;2023-06-22T05:22:18;102020.66;;;19.65;73.08
4767;BME280;2397;53.576;9.746;2023-06-22T05:24:45;102022.63;;;19.71;73.53
4767;BME280;2397;53.576;9.746;2023-06-22T05:27:13;102022.84;;;19.84;72.70
4767;BME280;2397;53.576;9.746;2023-06-22T05:29:40;102020.31;;;19.90;73.06
4767;BME280;2397;53.576;9.746;2023-06-22T05:32:07;102026.47;;;19.91;73.58
4767;BME280;2397;53.576;9.746;2023-06-22T05:34:34;102023.19;;;20.03;73.04
4767;BME280;2397;53.576;9.746;2023-06-22T05:37:02;102022.97;;;20.13;71.91
4767;BME280;2397;53.576;9.746;2023-06-22T05:39:29;102028.91;;;20.23;70.90
4767;BME280;2397;53.576;9.746;2023-06-22T05:41:55;102026.50;;;20.28;70.13
4767;BME280;2397;53.576;9.746;2023-06-22T05:44:22;102021.03;;;20.36;70.74
4767;BME280;2397;53.576;9.746;2023-06-22T05:46:48;102013.00;;;20.36;70.94
4767;BME280;2397;53.576;9.746;2023-06-22T05:49:15;102016.44;;;20.45;70.58
4767;BME280;2397;53.576;9.746;2023-06-22T05:51:43;102014.22;;;20.48;70.62
4767;BME280;2397;53.576;9.746;2023-06-22T05:54:10;102018.22;;;20.52;71.97
4767;BME280;2397;53.576;9.746;2023-06-22T05:56:36;102014.41;;;20.61;70.38
4767;BME280;2397;53.576;9.746;2023-06-22T05:59:03;102013.94;;;20.72;68.72
4767;BME280;2397;53.576;9.746;2023-06-22T06:01:30;102008.56;;;20.87;69.30
4767;BME280;2397;53.576;9.746;2023-06-22T06:04:03;102008.00;;;20.91;68.25
4767;BME280;2397;53.576;9.746;2023-06-22T06:06:31;102007.03;;;20.92;69.02
4767;BME280;2397;53.576;9.746;2023-06-22T06:08:57;102013.56;;;21.04;68.98
4767;BME280;2397;53.576;9.746;2023-06-22T06:11:25;102008.75;;;21.14;68.07
4767;BME280;2397;53.576;9.746;2023-06-22T06:13:52;102009.00;;;21.19;67.88
4767;BME280;2397;53.576;9.746;2023-06-22T06:16:19;102013.16;;;21.22;67.90
4767;BME280;2397;53.576;9.746;2023-06-22T06:18:45;102015.09;;;21.28;67.62
4767;BME280;2397;53.576;9.746;2023-06-22T06:21:12;102010.94;;;21.25;68.05
4767;BME280;2397;53.576;9.746;2023-06-22T06:23:38;102001.84;;;21.26;66.83
4767;BME280;2397;53.576;9.746;2023-06-22T06:26:05;102001.91;;;21.33;67.42
4767;BME280;2397;53.576;9.746;2023-06-22T06:28:34;101998.91;;;21.21;67.14
4767;BME280;2397;53.576;9.746;2023-06-22T06:31:00;102008.44;;;21.09;68.17
4767;BME280;2397;53.576;9.746;2023-06-22T06:33:27;102013.44;;;21.12;66.98
4767;BME280;2397;53.576;9.746;2023-06-22T06:35:54;102011.91;;;21.03;67.44
4767;BME280;2397;53.576;9.746;2023-06-22T06:38:22;102008.19;;;21.04;67.13
4767;BME280;2397;53.576;9.746;2023-06-22T06:40:49;102012.22;;;20.94;67.64
4767;BME280;2397;53.576;9.746;2023-06-22T06:43:16;102011.88;;;20.89;68.46
4767;BME280;2397;53.576;9.746;2023-06-22T06:45:42;102002.75;;;20.98;65.92
4767;BME280;2397;53.576;9.746;2023-06-22T06:48:09;102005.94;;;21.08;66.02
4767;BME280;2397;53.576;9.746;2023-06-22T06:50:36;102000.41;;;21.09;66.63
4767;BME280;2397;53.576;9.746;2023-06-22T06:53:03;101998.13;;;21.27;65.36
4767;BME280;2397;53.576;9.746;2023-06-22T06:55:29;102001.09;;;21.53;64.35
4767;BME280;2397;53.576;9.746;2023-06-22T06:57:59;101990.75;;;21.71;62.07
4767;BME280;2397;53.576;9.746;2023-06-22T07:00:26;101987.69;;;21.74;63.58
4767;BME280;2397;53.576;9.746;2023-06-22T07:02:53;101989.84;;;21.85;62.86
4767;BME280;2397;53.576;9.746;2023-06-22T07:05:20;101992.78;;;21.90;62.20
4767;BME280;2397;53.576;9.746;2023-06-22T07:07:47;101994.22;;;21.93;62.33
4767;BME280;2397;53.576;9.746;2023-06-22T07:10:13;101994.00;;;22.15;61.17
4767;BME280;2397;53.576;9.746;2023-06-22T07:12:41;101995.72;;;22.23;61.24
4767;BME280;2397;53.576;9.746;2023-06-22T07:15:09;102001.75;;;22.31;61.48
4767;BME280;2397;53.576;9.746;2023-06-22T07:17:36;101997.09;;;22.12;62.58
4767;BME280;2397;53.576;9.746;2023-06-22T07:20:03;102006.50;;;22.23;62.97
4767;BME280;2397;53.576;9.746;2023-06-22T07:22:42;101993.34;;;22.13;61.81
4767;BME280;2397;53.576;9.746;2023-06-22T07:25:11;101993.59;;;22.46;61.40
4767;BME280;2397;53.576;9.746;2023-06-22T07:30:23;101986.09;;;22.75;57.90
4767;BME280;2397;53.576;9.746;2023-06-22T07:32:50;101996.56;;;22.98;57.91
4767;BME280;2397;53.576;9.746;2023-06-22T07:35:16;101991.56;;;22.95;57.59
4767;BME280;2397;53.576;9.746;2023-06-22T07:37:43;101989.34;;;23.12;55.51
4767;BME280;2397;53.576;9.746;2023-06-22T07:40:10;101994.00;;;23.24;58.40
4767;BME280;2397;53.576;9.746;2023-06-22T07:42:37;101984.72;;;23.40;54.82
4767;BME280;2397;53.576;9.746;2023-06-22T07:45:04;101998.38;;;23.38;55.67
4767;BME280;2397;53.576;9.746;2023-06-22T07:47:31;101990.84;;;23.21;54.88
4767;BME280;2397;53.576;9.746;2023-06-22T07:50:02;102001.63;;;23.21;55.67
4767;BME280;2397;53.576;9.746;2023-06-22T07:52:30;102005.34;;;23.20;56.61
4767;BME280;2397;53.576;9.746;2023-06-22T07:54:56;101999.53;;;23.10;56.53
4767;BME280;2397;53.576;9.746;2023-06-22T07:57:23;101993.00;;;23.32;55.94
4767;BME280;2397;53.576;9.746;2023-06-22T08:00:02;101998.41;;;23.64;55.44
4767;BME280;2397;53.576;9.746;2023-06-22T08:02:38;101990.97;;;23.79;52.73
4767;BME280;2397;53.576;9.746;2023-06-22T08:05:05;101988.28;;;23.92;53.56
4767;BME280;2397;53.576;9.746;2023-06-22T08:07:48;101980.81;;;23.94;52.43
4767;BME280;2397;53.576;9.746;2023-06-22T08:10:15;101985.16;;;23.82;52.41
4767;BME280;2397;53.576;9.746;2023-06-22T08:12:42;101997.38;;;23.72;53.82
4767;BME280;2397;53.576;9.746;2023-06-22T08:15:09;101995.53;;;23.85;53.71
4767;BME280;2397;53.576;9.746;2023-06-22T08:17:37;101980.59;;;24.02;51.55
4767;BME280;2397;53.576;9.746;2023-06-22T08:20:05;101980.00;;;24.07;51.02
4767;BME280;2397;53.576;9.746;2023-06-22T08:22:36;101981.03;;;23.99;53.37
4767;BME280;2397;53.576;9.746;2023-06-22T08:25:05;101990.16;;;23.98;54.57
4767;BME280;2397;53.576;9.746;2023-06-22T08:27:32;101971.66;;;24.28;52.08
4767;BME280;2397;53.576;9.746;2023-06-22T08:29:59;101977.25;;;24.20;53.29
4767;BME280;2397;53.576;9.746;2023-06-22T08:32:29;101971.69;;;23.82;52.97
4767;BME280;2397;53.576;9.746;2023-06-22T08:34:57;101972.09;;;23.79;52.85
4767;BME280;2397;53.576;9.746;2023-06-22T08:37:24;101986.19;;;23.75;54.20
4767;BME280;2397;53.576;9.746;2023-06-22T08:39:58;101988.69;;;23.70;53.48
4767;BME280;2397;53.576;9.746;2023-06-22T08:42:25;101977.06;;;23.69;52.85
4767;BME280;2397;53.576;9.746;2023-06-22T08:44:52;101970.25;;;23.80;52.18
4767;BME280;2397;53.576;9.746;2023-06-22T08:47:19;101968.38;;;24.00;52.90
4767;BME280;2397;53.576;9.746;2023-06-22T08:49:46;101962.69;;;24.40;51.69
4767;BME280;2397;53.576;9.746;2023-06-22T08:52:13;101957.28;;;24.47;52.17
4767;BME280;2397;53.576;9.746;2023-06-22T08:54:40;101943.56;;;24.55;52.47
4767;BME280;2397;53.576;9.746;2023-06-22T08:57:06;101946.56;;;24.84;51.76
4767;BME280;2397;53.576;9.746;2023-06-22T08:59:33;101930.44;;;25.09;49.55
4767;BME280;2397;53.576;9.746;2023-06-22T09:01:59;101932.16;;;24.97;49.32
4767;BME280;2397;53.576;9.746;2023-06-22T09:04:26;101931.88;;;24.74;50.01
4767;BME280;2397;53.576;9.746;2023-06-22T09:06:53;101923.59;;;24.69;49.24
4767;BME280;2397;53.576;9.746;2023-06-22T09:09:21;101930.91;;;24.62;50.18
4767;BME280;2397;53.576;9.746;2023-06-22T09:11:48;101930.22;;;24.60;50.67
4767;BME280;2397;53.576;9.746;2023-06-22T09:14:14;101926.50;;;24.67;49.62
4767;BME280;2397;53.576;9.746;2023-06-22T09:16:41;101921.81;;;24.87;50.21
4767;BME280;2397;53.576;9.746;2023-06-22T09:19:07;101918.50;;;25.23;48.82
4767;BME280;2397;53.576;9.746;2023-06-22T09:21:34;101900.72;;;25.40;46.32
4767;BME280;2397;53.576;9.746;2023-06-22T09:24:00;101915.31;;;25.39;48.71
4767;BME280;2397;53.576;9.746;2023-06-22T09:26:27;101914.69;;;25.61;49.16
4767;BME280;2397;53.576;9.746;2023-06-22T09:28:54;101902.19;;;25.85;48.11
4767;BME280;2397;53.576;9.746;2023-06-22T09:31:20;101892.28;;;26.04;46.44
4767;BME280;2397;53.576;9.746;2023-06-22T09:33:53;101889.78;;;26.02;46.60
4767;BME280;2397;53.576;9.746;2023-06-22T09:36:21;101896.00;;;26.02;47.99
4767;BME280;2397;53.576;9.746;2023-06-22T09:38:48;101883.19;;;26.34;45.29
4767;BME280;2397;53.576;9.746;2023-06-22T09:41:14;101875.66;;;26.00;45.45
4767;BME280;2397;53.576;9.746;2023-06-22T09:43:42;101876.75;;;25.92;46.58
4767;BME280;2397;53.576;9.746;2023-06-22T09:46:08;101882.13;;;25.74;46.77
4767;BME280;2397;53.576;9.746;2023-06-22T09:48:35;101890.59;;;26.02;47.33
4767;BME280;2397;53.576;9.746;2023-06-22T09:51:06;101874.22;;;26.16;44.68
4767;BME280;2397;53.576;9.746;2023-06-22T09:53:32;101880.16;;;26.06;46.75
4767;BME280;2397;53.576;9.746;2023-06-22T09:56:01;101885.09;;;26.45;46.97
4767;BME280;2397;53.576;9.746;2023-06-22T09:58:28;101881.63;;;26.74;45.43
4767;BME280;2397;53.576;9.746;2023-06-22T10:00:55;101873.81;;;26.66;45.44
4767;BME280;2397;53.576;9.746;2023-06-22T10:03:21;101862.09;;;26.54;44.93
4767;BME280;2397;53.576;9.746;2023-06-22T10:05:49;101858.44;;;26.78;42.47
4767;BME280;2397;53.576;9.746;2023-06-22T10:08:16;101860.28;;;26.96;44.26
4767;BME280;2397;53.576;9.746;2023-06-22T10:10:42;101864.91;;;27.18;45.59
4767;BME280;2397;53.576;9.746;2023-06-22T10:13:10;101854.84;;;27.48;43.28
4767;BME280;2397;53.576;9.746;2023-06-22T10:15:38;101852.84;;;27.67;43.08
4767;BME280;2397;53.576;9.746;2023-06-22T10:18:04;101832.69;;;27.51;41.89
4767;BME280;2397;53.576;9.746;2023-06-22T10:20:31;101836.34;;;27.68;42.09
4767;BME280;2397;53.576;9.746;2023-06-22T10:22:58;101832.81;;;27.79;41.98
4767;BME280;2397;53.576;9.746;2023-06-22T10:25:26;101829.84;;;27.69;42.01
4767;BME280;2397;53.576;9.746;2023-06-22T10:27:53;101829.41;;;27.84;41.83
4767;BME280;2397;53.576;9.746;2023-06-22T10:30:20;101829.97;;;27.97;41.66
4767;BME280;2397;53.576;9.746;2023-06-22T10:32:47;101820.78;;;27.64;40.90
4767;BME280;2397;53.576;9.746;2023-06-22T10:35:14;101817.03;;;27.30;41.33
4767;BME280;2397;53.576;9.746;2023-06-22T10:37:46;101821.38;;;27.31;41.76
4767;BME280;2397;53.576;9.746;2023-06-22T10:40:14;101825.41;;;27.86;43.26
4767;BME280;2397;53.576;9.746;2023-06-22T10:42:41;101811.81;;;28.37;40.18
4767;BME280;2397;53.576;9.746;2023-06-22T10:45:08;101793.84;;;28.08;38.79
4767;BME280;2397;53.576;9.746;2023-06-22T10:47:35;101817.44;;;28.08;42.08
4767;BME280;2397;53.576;9.746;2023-06-22T10:50:03;101802.47;;;28.05;40.72
4767;BME280;2397;53.576;9.746;2023-06-22T10:52:30;101807.78;;;27.77;42.12
4767;BME280;2397;53.576;9.746;2023-06-22T10:54:57;101814.16;;;27.60;42.16
4767;BME280;2397;53.576;9.746;2023-06-22T10:57:24;101808.50;;;27.96;42.38
4767;BME280;2397;53.576;9.746;2023-06-22T10:59:50;101805.78;;;28.35;41.53
4767;BME280;2397;53.576;9.746;2023-06-22T11:02:17;101812.06;;;28.64;42.40
4767;BME280;2397;53.576;9.746;2023-06-22T11:04:44;101804.03;;;28.85;41.34
4767;BME280;2397;53.576;9.746;2023-06-22T11:07:10;101805.19;;;28.89;42.22
4767;BME280;2397;53.576;9.746;2023-06-22T11:09:37;101799.88;;;28.66;39.60
4767;BME280;2397;53.576;9.746;2023-06-22T11:12:05;101789.56;;;28.52;40.58
4767;BME280;2397;53.576;9.746;2023-06-22T11:14:32;101795.06;;;28.85;40.94
4767;BME280;2397;53.576;9.746;2023-06-22T11:16:59;101786.75;;;29.25;38.91
4767;BME280;2397;53.576;9.746;2023-06-22T11:19:26;101777.69;;;29.03;38.22
4767;BME280;2397;53.576;9.746;2023-06-22T11:21:53;101787.19;;;29.17;39.93
4767;BME280;2397;53.576;9.746;2023-06-22T11:24:20;101782.91;;;29.75;38.26
4767;BME280;2397;53.576;9.746;2023-06-22T11:26:46;101771.88;;;30.08;36.60
4767;BME280;2397;53.576;9.746;2023-06-22T11:29:13;101782.94;;;30.18;39.44
4767;BME280;2397;53.576;9.746;2023-06-22T11:32:00;101767.72;;;30.22;37.32
4767;BME280;2397;53.576;9.746;2023-06-22T11:34:27;101782.09;;;30.18;38.99
4767;BME280;2397;53.576;9.746;2023-06-22T11:36:54;101773.38;;;30.16;38.33
4767;BME280;2397;53.576;9.746;2023-06-22T11:39:21;101771.38;;;30.11;38.58
4767;BME280;2397;53.576;9.746;2023-06-22T11:42:04;101761.72;;;30.20;37.99
4767;BME280;2397;53.576;9.746;2023-06-22T11:44:31;101762.34;;;30.54;37.43
4767;BME280;2397;53.576;9.746;2023-06-22T11:46:57;101761.06;;;30.61;37.73
4767;BME280;2397;53.576;9.746;2023-06-22T11:49:24;101752.88;;;30.61;37.23
4767;BME280;2397;53.576;9.746;2023-06-22T11:51:50;101749.84;;;30.58;37.16
4767;BME280;2397;53.576;9.746;2023-06-22T11:54:17;101753.03;;;30.50;38.13
4767;BME280;2397;53.576;9.746;2023-06-22T11:56:43;101749.22;;;30.51;37.96
4767;BME280;2397;53.576;9.746;2023-06-22T11:59:10;101743.56;;;30.84;37.49
4767;BME280;2397;53.576;9.746;2023-06-22T12:01:36;101732.47;;;30.95;36.97
4767;BME280;2397;53.576;9.746;2023-06-22T12:04:03;101729.94;;;31.20;36.45
4767;BME280;2397;53.576;9.746;2023-06-22T12:06:33;101729.63;;;31.17;37.29
4767;BME280;2397;53.576;9.746;2023-06-22T12:08:59;101719.19;;;31.45;36.41
4767;BME280;2397;53.576;9.746;2023-06-22T12:11:26;101706.03;;;31.84;34.90
4767;BME280;2397;53.576;9.746;2023-06-22T12:13:52;101706.63;;;32.06;34.33
4767;BME280;2397;53.576;9.746;2023-06-22T12:16:19;101706.09;;;32.14;35.60
4767;BME280;2397;53.576;9.746;2023-06-22T12:18:48;101691.63;;;32.29;33.74
4767;BME280;2397;53.576;9.746;2023-06-22T12:21:14;101697.31;;;31.92;35.72
4767;BME280;2397;53.576;9.746;2023-06-22T12:23:41;101691.34;;;31.43;35.17
4767;BME280;2397;53.576;9.746;2023-06-22T12:26:07;101690.88;;;31.61;35.55
4767;BME280;2397;53.576;9.746;2023-06-22T12:28:34;101688.47;;;31.75;35.19
4767;BME280;2397;53.576;9.746;2023-06-22T12:31:00;101687.19;;;31.93;35.78
4767;BME280;2397;53.576;9.746;2023-06-22T12:33:27;101689.69;;;32.19;35.71
4767;BME280;2397;53.576;9.746;2023-06-22T12:35:53;101680.41;;;32.20;34.56
4767;BME280;2397;53.576;9.746;2023-06-22T12:38:20;101669.25;;;32.32;34.27
4767;BME280;2397;53.576;9.746;2023-06-22T12:40:46;101670.63;;;32.59;35.14
4767;BME280;2397;53.576;9.746;2023-06-22T12:43:13;101676.38;;;32.58;34.60
4767;BME280;2397;53.576;9.746;2023-06-22T12:45:40;101667.63;;;32.41;34.33
4767;BME280;2397;53.576;9.746;2023-06-22T12:48:06;101666.53;;;32.57;33.30
4767;BME280;2397;53.576;9.746;2023-06-22T12:50:34;101669.28;;;32.87;33.65
4767;BME280;2397;53.576;9.746;2023-06-22T12:53:01;101674.72;;;32.72;35.11
4767;BME280;2397;53.576;9.746;2023-06-22T12:55:29;101667.91;;;32.59;33.59
4767;BME280;2397;53.576;9.746;2023-06-22T12:57:56;101661.88;;;32.82;33.79
4767;BME280;2397;53.576;9.746;2023-06-22T13:00:22;101668.13;;;33.13;33.58
4767;BME280;2397;53.576;9.746;2023-06-22T13:02:49;101671.72;;;33.03;34.09
4767;BME280;2397;53.576;9.746;2023-06-22T13:05:16;101660.22;;;32.61;34.12
4767;BME280;2397;53.576;9.746;2023-06-22T13:07:42;101654.78;;;32.46;33.76
4767;BME280;2397;53.576;9.746;2023-06-22T13:10:09;101659.63;;;33.09;33.59
4767;BME280;2397;53.576;9.746;2023-06-22T13:12:35;101661.25;;;33.35;35.18
4767;BME280;2397;53.576;9.746;2023-06-22T13:15:02;101645.22;;;33.67;31.55
4767;BME280;2397;53.576;9.746;2023-06-22T13:17:29;101644.59;;;33.85;31.64
4767;BME280;2397;53.576;9.746;2023-06-22T13:19:56;101636.09;;;33.77;31.89
4767;BME280;2397;53.576;9.746;2023-06-22T13:24:55;101642.69;;;33.76;32.96